Time;durP1;ratioP1;P1;durP2;ratioP2;P2;SDS_P1;SDS_P2;PMS_P1;PMS_P2;Temp;Humidity;BMP_temperature;BMP_pressure;BME280_temperature;BME280_humidity;BME280_pressure;Samples;Min_cycle;Max_cycle;Signal;HPM_P1;HPM_P2
2023/07/28 00:02:04;;;;;;;4.57;2.40;;;;;;;;;;5016618;28;20225;-71
2023/07/28 00:05:08;;;;;;;6.53;2.80;;;;;;;;;;5016725;28;20189;-72
2023/07/28 00:08:12;;;;;;;3.03;2.30;;;;;;;;;;5016670;28;20181;-72
2023/07/28 00:11:17;;;;;;;5.20;2.83;;;;;;;;;;5016581;28;20564;-72
2023/07/28 00:14:21;;;;;;;3.87;2.80;;;;;;;;;;5016687;28;20624;-72
2023/07/28 00:17:25;;;;;;;5.87;2.80;;;;;;;;;;5004100;28;20660;-72
2023/07/28 00:20:29;;;;;;;5.07;2.80;;;;;;;;;;5016197;28;20197;-72
2023/07/28 00:23:33;;;;;;;4.33;2.93;;;;;;;;;;5016090;28;20178;-72
2023/07/28 00:26:37;;;;;;;3.60;3.00;;;;;;;;;;5016560;28;20177;-72
2023/07/28 00:29:41;;;;;;;4.27;2.67;;;;;;;;;;4993294;28;20514;-72
2023/07/28 00:32:45;;;;;;;4.10;2.83;;;;;;;;;;5003900;28;20170;-72
2023/07/28 00:35:49;;;;;;;3.27;2.70;;;;;;;;;;5004339;28;20177;-72
2023/07/28 00:38:54;;;;;;;4.07;2.83;;;;;;;;;;5015765;28;20201;-72
2023/07/28 00:41:58;;;;;;;4.87;3.00;;;;;;;;;;4992416;28;20229;-72
2023/07/28 00:45:01;;;;;;;3.53;3.03;;;;;;;;;;5003697;28;20201;-72
2023/07/28 00:48:12;;;;;;;3.73;2.70;;;;;;;;;;5015937;28;20181;-72
2023/07/28 00:51:16;;;;;;;5.27;3.20;;;;;;;;;;5015662;28;20221;-72
2023/07/28 00:54:21;;;;;;;4.60;3.00;;;;;;;;;;5003571;28;20636;-72
2023/07/28 00:57:25;;;;;;;3.40;2.73;;;;;;;;;;5003931;28;20185;-72
2023/07/28 01:00:29;;;;;;;4.47;3.13;;;;;;;;;;4992616;28;20519;-72
2023/07/28 01:03:33;;;;;;;4.63;3.30;;;;;;;;;;5002778;28;20209;-72
2023/07/28 01:07:09;;;;;;;3.87;2.50;;;;;;;;;;5003839;28;20177;-72
2023/07/28 01:10:22;;;;;;;5.93;3.10;;;;;;;;;;4996839;28;20197;-72
2023/07/28 01:13:26;;;;;;;3.50;3.20;;;;;;;;;;5003154;28;20178;-72
2023/07/28 01:16:30;;;;;;;3.57;2.77;;;;;;;;;;5015717;28;20181;-72
2023/07/28 01:19:34;;;;;;;3.87;3.00;;;;;;;;;;5015073;28;20181;-72
2023/07/28 01:22:38;;;;;;;4.20;3.10;;;;;;;;;;5002811;28;20573;-72
2023/07/28 01:26:06;;;;;;;5.80;2.87;;;;;;;;;;4991760;28;20181;-72
2023/07/28 01:29:12;;;;;;;6.23;2.80;;;;;;;;;;4980727;28;20186;-72
2023/07/28 01:32:16;;;;;;;4.77;3.07;;;;;;;;;;5002734;28;20213;-71
2023/07/28 01:35:21;;;;;;;4.00;2.80;;;;;;;;;;5015031;28;20177;-72
2023/07/28 01:38:25;;;;;;;3.80;3.40;;;;;;;;;;5003024;28;20193;-72
2023/07/28 01:41:29;;;;;;;3.70;2.90;;;;;;;;;;5002587;28;20217;-72
2023/07/28 01:44:33;;;;;;;3.80;3.20;;;;;;;;;;5002528;28;20185;-72
2023/07/28 01:47:37;;;;;;;5.00;3.00;;;;;;;;;;5014531;28;20178;-71
2023/07/28 01:50:42;;;;;;;6.83;3.27;;;;;;;;;;5002431;28;20209;-72
2023/07/28 01:53:46;;;;;;;4.30;2.80;;;;;;;;;;4991328;28;20174;-72
2023/07/28 01:56:50;;;;;;;5.90;3.23;;;;;;;;;;5014637;28;20182;-72
2023/07/28 01:59:54;;;;;;;7.40;3.03;;;;;;;;;;5002471;28;20197;-72
2023/07/28 02:03:01;;;;;;;6.37;3.40;;;;;;;;;;5014155;28;20683;-72
2023/07/28 02:06:05;;;;;;;3.63;3.10;;;;;;;;;;4991232;28;20185;-72
2023/07/28 02:09:10;;;;;;;4.70;3.33;;;;;;;;;;5002145;28;20173;-72
2023/07/28 02:12:14;;;;;;;7.27;3.43;;;;;;;;;;5001933;28;20208;-72
2023/07/28 02:15:18;;;;;;;5.07;3.20;;;;;;;;;;5001142;28;20541;-72
2023/07/28 02:18:22;;;;;;;7.43;3.43;;;;;;;;;;5002152;28;20197;-72
2023/07/28 02:21:27;;;;;;;4.90;3.37;;;;;;;;;;5001685;28;20209;-71
2023/07/28 02:24:31;;;;;;;4.93;3.77;;;;;;;;;;5002049;28;20198;-72
2023/07/28 02:27:37;;;;;;;5.73;3.20;;;;;;;;;;4990597;28;20173;-72
2023/07/28 02:30:41;;;;;;;4.53;3.03;;;;;;;;;;5014272;28;20687;-72
2023/07/28 02:33:46;;;;;;;3.83;3.00;;;;;;;;;;5002049;28;20181;-72
2023/07/28 02:36:50;;;;;;;3.20;2.90;;;;;;;;;;5014273;28;20181;-72
2023/07/28 02:39:54;;;;;;;5.73;3.27;;;;;;;;;;4990467;28;20182;-71
2023/07/28 02:42:58;;;;;;;4.70;3.10;;;;;;;;;;5001516;28;20205;-72
2023/07/28 02:46:03;;;;;;;4.73;2.93;;;;;;;;;;5013689;28;20204;-71
2023/07/28 02:49:07;;;;;;;3.90;3.17;;;;;;;;;;5001677;28;20185;-72
2023/07/28 02:52:11;;;;;;;5.70;3.40;;;;;;;;;;5001428;28;20557;-72
2023/07/28 02:55:15;;;;;;;4.27;3.07;;;;;;;;;;5001698;28;20517;-72
2023/07/28 02:58:19;;;;;;;8.87;3.10;;;;;;;;;;5001380;28;20178;-72
2023/07/28 03:01:23;;;;;;;3.60;3.03;;;;;;;;;;5013739;28;20695;-71
2023/07/28 03:04:27;;;;;;;3.93;3.10;;;;;;;;;;5013806;28;20173;-72
2023/07/28 03:08:06;;;;;;;3.90;3.00;;;;;;;;;;5013555;28;20178;-72
2023/07/28 03:11:10;;;;;;;4.70;3.10;;;;;;;;;;5001389;28;20212;-71
2023/07/28 03:14:14;;;;;;;5.63;2.87;;;;;;;;;;5001740;28;20174;-72
2023/07/28 03:17:18;;;;;;;3.70;2.97;;;;;;;;;;5013296;28;20181;-72
2023/07/28 03:20:22;;;;;;;4.20;2.93;;;;;;;;;;4990388;28;20177;-71
2023/07/28 03:23:27;;;;;;;4.20;3.07;;;;;;;;;;5013265;28;20676;-71
2023/07/28 03:26:31;;;;;;;3.83;2.93;;;;;;;;;;4992627;28;20182;-72
2023/07/28 03:29:35;;;;;;;5.03;3.20;;;;;;;;;;4993954;28;20201;-72
2023/07/28 03:32:39;;;;;;;5.63;2.60;;;;;;;;;;5004923;28;20217;-72
2023/07/28 03:35:43;;;;;;;3.47;2.83;;;;;;;;;;5017770;28;20185;-72
2023/07/28 03:38:48;;;;;;;3.83;2.80;;;;;;;;;;5004981;28;20177;-71
2023/07/28 03:41:52;;;;;;;7.00;2.67;;;;;;;;;;5005539;28;20224;-72
2023/07/28 03:44:59;;;;;;;3.27;2.70;;;;;;;;;;5004647;28;20185;-72
2023/07/28 03:48:03;;;;;;;4.60;2.70;;;;;;;;;;5005143;28;20178;-71
2023/07/28 03:51:07;;;;;;;4.70;2.77;;;;;;;;;;5004563;28;20213;-71
2023/07/28 03:54:11;;;;;;;3.97;2.60;;;;;;;;;;5004807;28;20194;-71
2023/07/28 03:57:15;;;;;;;3.00;2.67;;;;;;;;;;5005094;28;20197;-71
2023/07/28 04:00:20;;;;;;;3.17;2.60;;;;;;;;;;5016707;28;20253;-72
2023/07/28 04:03:24;;;;;;;3.60;3.20;;;;;;;;;;5004237;28;20229;-71
2023/07/28 04:06:43;;;;;;;4.77;2.93;;;;;;;;;;5004545;28;20189;-72
2023/07/28 04:09:47;;;;;;;5.93;2.73;;;;;;;;;;4993988;28;20537;-71
2023/07/28 04:12:51;;;;;;;3.13;2.80;;;;;;;;;;4999806;28;20541;-71
2023/07/28 04:15:56;;;;;;;3.07;2.67;;;;;;;;;;5004105;28;20185;-71
2023/07/28 04:19:01;;;;;;;5.93;3.13;;;;;;;;;;5004407;28;20181;-72
2023/07/28 04:22:05;;;;;;;3.97;2.73;;;;;;;;;;5004032;28;20217;-72
2023/07/28 04:25:11;;;;;;;5.93;2.70;;;;;;;;;;5004099;28;20648;-72
2023/07/28 04:28:20;;;;;;;4.13;3.10;;;;;;;;;;5003937;28;20181;-71
2023/07/28 04:31:24;;;;;;;3.53;3.17;;;;;;;;;;5003718;28;20209;-71
2023/07/28 04:34:38;;;;;;;3.23;2.93;;;;;;;;;;5003884;28;20185;-71
2023/07/28 04:37:53;;;;;;;7.10;3.03;;;;;;;;;;5002832;28;20181;-72
2023/07/28 04:41:06;;;;;;;3.43;2.53;;;;;;;;;;5003645;28;20217;-71
2023/07/28 04:44:29;;;;;;;3.10;2.80;;;;;;;;;;4992875;28;20213;-72
2023/07/28 04:47:37;;;;;;;3.00;2.70;;;;;;;;;;5003585;28;20545;-71
2023/07/28 04:50:45;;;;;;;4.73;2.73;;;;;;;;;;5003526;28;20225;-71
2023/07/28 04:54:07;;;;;;;3.93;3.10;;;;;;;;;;5015508;28;20178;-72
2023/07/28 04:57:11;;;;;;;4.30;2.80;;;;;;;;;;5003603;28;20182;-71
2023/07/28 05:00:16;;;;;;;3.07;2.53;;;;;;;;;;4998996;28;20201;-70
2023/07/28 05:03:20;;;;;;;5.07;2.60;;;;;;;;;;4984037;28;20206;-71
2023/07/28 05:06:31;;;;;;;3.77;2.97;;;;;;;;;;4995202;28;20186;-72
2023/07/28 05:09:35;;;;;;;5.13;2.57;;;;;;;;;;4994922;28;20194;-71
2023/07/28 05:12:39;;;;;;;3.33;2.50;;;;;;;;;;4987877;28;20225;-71
2023/07/28 05:15:44;;;;;;;3.60;2.90;;;;;;;;;;4988043;28;20205;-71
2023/07/28 05:18:55;;;;;;;4.30;3.00;;;;;;;;;;5003090;28;20672;-72
2023/07/28 05:22:18;;;;;;;3.00;2.57;;;;;;;;;;4995629;28;20218;-71
2023/07/28 05:25:26;;;;;;;3.40;2.73;;;;;;;;;;4984233;28;20182;-72
2023/07/28 05:28:34;;;;;;;5.50;2.67;;;;;;;;;;4983686;28;20170;-72
2023/07/28 05:31:39;;;;;;;4.47;3.13;;;;;;;;;;4983360;28;20218;-71
2023/07/28 05:34:51;;;;;;;3.73;3.20;;;;;;;;;;4983723;28;20182;-72
2023/07/28 05:37:55;;;;;;;4.87;3.07;;;;;;;;;;4983161;28;20523;-71
2023/07/28 05:41:00;;;;;;;3.33;3.03;;;;;;;;;;4983092;28;20213;-71
2023/07/28 05:44:05;;;;;;;5.10;2.80;;;;;;;;;;4971994;28;20550;-71
2023/07/28 05:47:09;;;;;;;6.77;3.40;;;;;;;;;;4972155;28;20171;-70
2023/07/28 05:50:13;;;;;;;5.17;3.10;;;;;;;;;;4982819;28;20182;-71
2023/07/28 05:53:17;;;;;;;3.80;2.93;;;;;;;;;;4971711;28;20186;-71
2023/07/28 05:56:22;;;;;;;3.23;2.90;;;;;;;;;;4982715;28;20182;-72
2023/07/28 05:59:26;;;;;;;4.40;3.10;;;;;;;;;;4994597;28;20213;-71
2023/07/28 06:02:30;;;;;;;3.30;3.00;;;;;;;;;;4985898;28;20218;-71
2023/07/28 06:05:34;;;;;;;6.03;3.17;;;;;;;;;;4971554;28;20519;-71
2023/07/28 06:08:38;;;;;;;3.23;2.90;;;;;;;;;;4994738;28;20633;-71
2023/07/28 06:11:42;;;;;;;4.47;2.87;;;;;;;;;;4982233;28;20221;-71
2023/07/28 06:14:47;;;;;;;3.17;2.87;;;;;;;;;;4982766;28;20511;-71
2023/07/28 06:17:52;;;;;;;4.33;2.83;;;;;;;;;;4982749;28;20182;-72
2023/07/28 06:20:56;;;;;;;4.07;2.70;;;;;;;;;;4971376;28;20218;-71
2023/07/28 06:24:00;;;;;;;4.80;3.00;;;;;;;;;;4982287;28;20217;-72
2023/07/28 06:27:08;;;;;;;4.90;2.30;;;;;;;;;;4982296;28;20542;-71
2023/07/28 06:30:14;;;;;;;5.60;2.73;;;;;;;;;;4996263;28;20201;-71
2023/07/28 06:33:18;;;;;;;5.60;2.30;;;;;;;;;;5016545;23;20173;-73
2023/07/28 06:36:22;;;;;;;4.73;2.30;;;;;;;;;;4981795;28;20219;-72
2023/07/28 06:39:26;;;;;;;5.30;2.40;;;;;;;;;;4993984;28;20194;-72
2023/07/28 06:42:30;;;;;;;2.60;2.30;;;;;;;;;;4970906;28;20214;-71
2023/07/28 06:45:34;;;;;;;4.27;2.47;;;;;;;;;;4981047;28;20194;-72
2023/07/28 06:48:40;;;;;;;3.50;2.40;;;;;;;;;;4981935;28;20546;-71
2023/07/28 06:51:44;;;;;;;3.80;2.27;;;;;;;;;;4982122;28;20218;-72
2023/07/28 06:54:49;;;;;;;3.13;2.20;;;;;;;;;;4982157;28;20641;-71
2023/07/28 06:57:53;;;;;;;3.83;2.40;;;;;;;;;;4981863;28;20185;-72
2023/07/28 07:00:58;;;;;;;2.67;2.10;;;;;;;;;;4981534;28;20554;-71
2023/07/28 07:04:02;;;;;;;11.60;3.33;;;;;;;;;;4993659;28;20218;-72
2023/07/28 07:07:06;;;;;;;6.37;2.20;;;;;;;;;;4992857;28;20209;-72
2023/07/28 07:10:10;;;;;;;3.33;1.93;;;;;;;;;;4993731;28;20530;-72
2023/07/28 07:13:14;;;;;;;3.90;2.10;;;;;;;;;;4981962;28;20186;-72
2023/07/28 07:16:19;;;;;;;4.80;2.50;;;;;;;;;;4970768;28;20201;-72
2023/07/28 07:19:23;;;;;;;3.97;2.10;;;;;;;;;;4993820;28;20290;-72
2023/07/28 07:22:28;;;;;;;2.17;1.97;;;;;;;;;;4993375;28;20219;-72
2023/07/28 07:25:32;;;;;;;3.27;2.13;;;;;;;;;;4981481;28;20540;-72
2023/07/28 07:28:40;;;;;;;2.57;2.23;;;;;;;;;;4993552;28;20524;-72
2023/07/28 07:31:44;;;;;;;4.87;2.30;;;;;;;;;;4970660;28;20219;-72
2023/07/28 07:34:48;;;;;;;4.23;2.30;;;;;;;;;;4981597;28;20197;-72
2023/07/28 07:37:53;;;;;;;3.13;2.30;;;;;;;;;;4993419;28;20187;-72
2023/07/28 07:40:57;;;;;;;3.67;2.03;;;;;;;;;;4981312;28;20212;-72
2023/07/28 07:44:02;;;;;;;3.17;1.87;;;;;;;;;;4993534;28;20207;-71
2023/07/28 07:47:16;;;;;;;2.37;2.03;;;;;;;;;;4992546;28;20531;-72
2023/07/28 07:50:21;;;;;;;3.00;2.00;;;;;;;;;;4993315;28;20185;-72
2023/07/28 07:53:25;;;;;;;2.50;2.10;;;;;;;;;;4993308;28;20176;-72
2023/07/28 07:56:29;;;;;;;3.63;2.47;;;;;;;;;;4993286;28;20178;-72
2023/07/28 07:59:33;;;;;;;4.47;2.70;;;;;;;;;;4992774;28;20185;-72
2023/07/28 08:02:38;;;;;;;4.07;2.47;;;;;;;;;;4992505;28;20690;-72
2023/07/28 08:05:41;;;;;;;3.27;2.30;;;;;;;;;;4993203;28;20555;-71
2023/07/28 08:08:45;;;;;;;3.73;2.63;;;;;;;;;;4993409;28;20187;-72
2023/07/28 08:11:50;;;;;;;3.77;2.60;;;;;;;;;;4993104;28;20219;-72
2023/07/28 08:14:54;;;;;;;6.90;2.40;;;;;;;;;;4996910;28;20171;-72
2023/07/28 08:17:58;;;;;;;5.83;2.40;;;;;;;;;;4996909;28;20522;-72
2023/07/28 08:21:03;;;;;;;5.10;2.70;;;;;;;;;;4984553;28;20690;-72
2023/07/28 08:24:07;;;;;;;2.40;2.17;;;;;;;;;;4996433;28;20204;-73
2023/07/28 08:27:11;;;;;;;2.80;2.20;;;;;;;;;;4973734;28;20187;-72
2023/07/28 08:30:15;;;;;;;3.17;2.40;;;;;;;;;;4995668;28;20176;-73
2023/07/28 08:33:19;;;;;;;2.97;2.30;;;;;;;;;;4996480;28;20180;-72
2023/07/28 08:36:23;;;;;;;4.17;2.63;;;;;;;;;;4984339;28;20181;-72
2023/07/28 08:39:27;;;;;;;2.60;2.40;;;;;;;;;;4996206;28;20179;-72
2023/07/28 08:42:36;;;;;;;2.50;2.30;;;;;;;;;;4996068;28;20691;-72
2023/07/28 08:45:40;;;;;;;3.37;2.50;;;;;;;;;;4995235;28;20213;-72
2023/07/28 08:48:45;;;;;;;2.87;2.53;;;;;;;;;;4996071;28;20187;-72
2023/07/28 08:51:50;;;;;;;6.13;2.57;;;;;;;;;;4995995;28;20217;-72
2023/07/28 08:54:54;;;;;;;2.80;2.47;;;;;;;;;;4995231;28;20535;-72
2023/07/28 08:58:18;;;;;;;4.27;2.30;;;;;;;;;;4996134;28;20181;-72
2023/07/28 09:01:23;;;;;;;4.30;2.67;;;;;;;;;;4995797;28;20219;-72
2023/07/28 09:04:28;;;;;;;3.23;2.40;;;;;;;;;;4972761;28;20677;-72
2023/07/28 09:07:36;;;;;;;3.90;2.80;;;;;;;;;;4995716;28;20183;-73
2023/07/28 09:10:48;;;;;;;3.60;2.60;;;;;;;;;;4995539;28;20220;-73
2023/07/28 09:13:55;;;;;;;5.93;2.57;;;;;;;;;;4995840;28;20201;-72
2023/07/28 09:17:10;;;;;;;2.67;2.07;;;;;;;;;;4995531;28;20179;-73
2023/07/28 09:20:15;;;;;;;2.50;2.30;;;;;;;;;;4995758;28;20184;-72
2023/07/28 09:23:28;;;;;;;3.33;2.23;;;;;;;;;;4983388;28;20186;-73
2023/07/28 09:26:50;;;;;;;4.00;2.20;;;;;;;;;;4995600;28;20185;-73
2023/07/28 09:29:55;;;;;;;3.72;2.63;;;;;;;;;;4983388;28;20194;-72
2023/07/28 09:32:59;;;;;;;3.33;2.15;;;;;;;;;;4995321;28;20203;-73
2023/07/28 09:36:08;;;;;;;5.28;2.30;;;;;;;;;;4995194;28;20194;-73
2023/07/28 09:39:12;;;;;;;3.17;2.33;;;;;;;;;;4995142;28;20187;-72
2023/07/28 09:42:17;;;;;;;2.42;2.17;;;;;;;;;;4994963;28;20210;-73
2023/07/28 09:45:22;;;;;;;2.78;2.10;;;;;;;;;;4982886;28;20200;-72
2023/07/28 09:48:31;;;;;;;2.50;1.90;;;;;;;;;;4994812;28;20192;-72
2023/07/28 09:51:37;;;;;;;3.25;2.30;;;;;;;;;;4994786;28;20211;-73
2023/07/28 09:54:44;;;;;;;3.65;2.28;;;;;;;;;;4995085;28;20180;-72
2023/07/28 09:57:55;;;;;;;4.13;2.28;;;;;;;;;;4982758;28;20177;-73
2023/07/28 10:00:59;;;;;;;3.38;2.08;;;;;;;;;;4982681;28;20216;-72
2023/07/28 10:04:04;;;;;;;3.85;2.03;;;;;;;;;;4994538;28;20181;-73
2023/07/28 10:07:09;;;;;;;5.20;2.35;;;;;;;;;;4994919;28;20185;-72
2023/07/28 10:10:14;;;;;;;3.20;2.17;;;;;;;;;;4994585;28;20187;-73
2023/07/28 10:13:21;;;;;;;5.90;2.20;;;;;;;;;;4994496;28;20179;-72
2023/07/28 10:16:38;;;;;;;2.95;2.45;;;;;;;;;;4994472;28;20176;-72
2023/07/28 10:19:43;;;;;;;3.00;2.25;;;;;;;;;;4993582;28;20186;-72
2023/07/28 10:22:47;;;;;;;3.20;2.42;;;;;;;;;;4994482;28;20182;-72
2023/07/28 10:25:59;;;;;;;4.53;2.70;;;;;;;;;;4993470;28;20200;-72
2023/07/28 10:29:16;;;;;;;8.20;3.30;;;;;;;;;;4982262;28;20179;-73
2023/07/28 10:32:28;;;;;;;4.40;2.80;;;;;;;;;;4982425;28;20216;-72
2023/07/28 10:35:33;;;;;;;4.90;3.27;;;;;;;;;;4993630;28;20204;-72
2023/07/28 10:38:38;;;;;;;4.37;3.30;;;;;;;;;;4994035;28;20199;-72
2023/07/28 10:42:04;;;;;;;6.00;3.00;;;;;;;;;;4971093;28;20218;-72
2023/07/28 10:45:09;;;;;;;5.40;3.17;;;;;;;;;;4982154;28;20203;-73
2023/07/28 10:48:13;;;;;;;7.30;3.07;;;;;;;;;;4993921;28;20531;-73
2023/07/28 10:51:36;;;;;;;4.17;2.93;;;;;;;;;;4994010;28;20222;-72
2023/07/28 10:54:40;;;;;;;3.67;3.00;;;;;;;;;;4993889;28;20178;-72
2023/07/28 10:57:45;;;;;;;4.10;3.30;;;;;;;;;;4982027;28;20205;-72
2023/07/28 11:00:50;;;;;;;5.30;3.90;;;;;;;;;;4981723;28;20222;-72
2023/07/28 11:03:55;;;;;;;6.10;3.27;;;;;;;;;;4993759;28;20186;-72
2023/07/28 11:06:59;;;;;;;5.60;3.43;;;;;;;;;;4993734;28;20198;-72
2023/07/28 11:10:06;;;;;;;5.60;3.40;;;;;;;;;;4981745;28;20186;-72
2023/07/28 11:13:11;;;;;;;4.07;3.40;;;;;;;;;;4981972;28;20534;-72
2023/07/28 11:16:15;;;;;;;5.00;3.43;;;;;;;;;;4981942;28;20182;-73
2023/07/28 11:19:24;;;;;;;5.73;3.47;;;;;;;;;;4993799;28;20193;-73
2023/07/28 11:22:28;;;;;;;6.00;3.73;;;;;;;;;;4993415;28;20213;-73
2023/07/28 11:25:33;;;;;;;4.60;3.60;;;;;;;;;;4993448;28;20550;-72
2023/07/28 11:28:38;;;;;;;5.47;3.70;;;;;;;;;;4992776;28;20179;-73
2023/07/28 11:31:43;;;;;;;5.30;4.07;;;;;;;;;;4993549;28;20221;-73
2023/07/28 11:34:48;;;;;;;6.93;3.70;;;;;;;;;;4993339;28;20205;-73
2023/07/28 11:37:53;;;;;;;5.83;3.73;;;;;;;;;;4993339;28;20200;-73
2023/07/28 11:40:57;;;;;;;6.60;3.50;;;;;;;;;;4993239;28;20220;-73
2023/07/28 11:44:02;;;;;;;5.70;3.63;;;;;;;;;;4981661;28;20184;-73
2023/07/28 11:47:06;;;;;;;4.25;2.80;;;;;;;;;;4994422;28;20173;-73
2023/07/28 11:50:10;;;;;;;4.30;3.15;;;;;;;;;;4997356;28;20202;-73
2023/07/28 11:53:15;;;;;;;5.25;2.67;;;;;;;;;;4997089;28;20205;-73
2023/07/28 11:56:19;;;;;;;4.68;2.88;;;;;;;;;;4997063;28;20512;-73
2023/07/28 11:59:24;;;;;;;5.85;2.83;;;;;;;;;;4996947;28;20184;-73
2023/07/28 12:02:29;;;;;;;6.53;2.70;;;;;;;;;;4996851;28;20700;-73
2023/07/28 12:05:33;;;;;;;5.35;2.83;;;;;;;;;;4996821;28;20209;-73
2023/07/28 12:08:38;;;;;;;7.60;2.97;;;;;;;;;;4996798;28;20533;-73
2023/07/28 12:11:45;;;;;;;6.27;3.10;;;;;;;;;;4997030;28;20213;-73
2023/07/28 12:14:51;;;;;;;3.70;3.27;;;;;;;;;;4996686;28;20186;-73
2023/07/28 12:18:15;;;;;;;4.07;2.60;;;;;;;;;;4984653;28;20187;-73
2023/07/28 12:21:20;;;;;;;4.47;3.10;;;;;;;;;;4984827;28;20562;-73
2023/07/28 12:24:24;;;;;;;5.20;2.95;;;;;;;;;;4984644;28;20183;-73
2023/07/28 12:27:28;;;;;;;3.08;2.70;;;;;;;;;;4996415;28;20180;-73
2023/07/28 12:30:34;;;;;;;6.70;2.78;;;;;;;;;;4996318;28;20203;-73
2023/07/28 12:33:38;;;;;;;4.57;2.45;;;;;;;;;;4995499;28;20213;-73
2023/07/28 12:36:42;;;;;;;3.38;2.55;;;;;;;;;;5038898;23;20230;-74
2023/07/28 12:39:48;;;;;;;5.63;2.85;;;;;;;;;;5035592;28;20195;-73
2023/07/28 12:42:52;;;;;;;4.63;2.60;;;;;;;;;;5015182;28;20532;-74
2023/07/28 12:45:56;;;;;;;3.15;2.35;;;;;;;;;;5014843;28;20209;-74
2023/07/28 12:49:01;;;;;;;3.75;2.28;;;;;;;;;;5014849;28;20185;-74
2023/07/28 12:52:09;;;;;;;3.38;2.58;;;;;;;;;;5015525;28;20564;-74
2023/07/28 12:55:13;;;;;;;4.38;2.20;;;;;;;;;;5015848;28;20176;-73
2023/07/28 12:58:17;;;;;;;3.55;2.25;;;;;;;;;;5014362;28;20174;-74
2023/07/28 13:01:21;;;;;;;2.42;2.10;;;;;;;;;;5015617;28;20215;-74
2023/07/28 13:04:26;;;;;;;2.72;2.33;;;;;;;;;;5015345;28;20180;-74
2023/07/28 13:07:29;;;;;;;4.75;2.20;;;;;;;;;;5014585;28;20185;-74
2023/07/28 13:10:33;;;;;;;3.72;2.10;;;;;;;;;;5015157;28;20196;-74
2023/07/28 13:13:37;;;;;;;2.05;1.75;;;;;;;;;;5015179;28;20199;-73
2023/07/28 13:16:42;;;;;;;2.67;2.15;;;;;;;;;;5015340;28;20521;-74
2023/07/28 13:19:46;;;;;;;2.42;2.22;;;;;;;;;;5014257;28;20176;-72
2023/07/28 13:22:50;;;;;;;2.67;1.83;;;;;;;;;;5015152;28;20204;-73
2023/07/28 13:25:54;;;;;;;4.20;1.95;;;;;;;;;;5015212;28;20550;-73
2023/07/28 13:29:01;;;;;;;2.70;1.88;;;;;;;;;;5015177;28;20183;-74
2023/07/28 13:32:15;;;;;;;4.20;1.83;;;;;;;;;;5013905;28;20552;-74
2023/07/28 13:35:19;;;;;;;2.92;1.70;;;;;;;;;;5014038;28;20200;-74
2023/07/28 13:38:23;;;;;;;3.08;1.85;;;;;;;;;;5014778;28;20200;-72
2023/07/28 13:41:27;;;;;;;5.32;2.08;;;;;;;;;;5014573;28;20563;-74
2023/07/28 13:44:32;;;;;;;1.98;1.60;;;;;;;;;;5013852;28;20177;-75
2023/07/28 13:47:36;;;;;;;4.57;1.90;;;;;;;;;;5014490;28;20191;-72
2023/07/28 13:50:40;;;;;;;1.95;1.70;;;;;;;;;;5013555;28;20186;-72
2023/07/28 13:53:44;;;;;;;1.95;1.70;;;;;;;;;;5013623;28;20188;-72
2023/07/28 13:56:49;;;;;;;5.07;2.05;;;;;;;;;;5013545;28;20176;-71
2023/07/28 13:59:53;;;;;;;2.42;1.63;;;;;;;;;;5014288;28;20635;-72
2023/07/28 14:02:57;;;;;;;2.28;1.60;;;;;;;;;;5014316;28;20181;-71
2023/07/28 14:06:01;;;;;;;2.00;1.80;;;;;;;;;;5014393;28;20207;-72
2023/07/28 14:09:06;;;;;;;2.40;1.83;;;;;;;;;;5014094;28;20184;-71
2023/07/28 14:12:10;;;;;;;3.10;1.83;;;;;;;;;;5013291;28;20213;-74
2023/07/28 14:15:14;;;;;;;2.08;1.60;;;;;;;;;;5014016;28;20201;-72
2023/07/28 14:18:18;;;;;;;1.73;1.52;;;;;;;;;;5013816;28;20537;-72
2023/07/28 14:21:22;;;;;;;2.30;2.10;;;;;;;;;;5012926;28;20219;-72
2023/07/28 14:24:27;;;;;;;2.40;1.95;;;;;;;;;;5014008;28;20179;-73
2023/07/28 14:27:31;;;;;;;4.15;2.25;;;;;;;;;;5013650;28;20211;-73
2023/07/28 14:30:35;;;;;;;5.22;1.98;;;;;;;;;;5013064;28;20181;-73
2023/07/28 14:33:39;;;;;;;2.08;1.85;;;;;;;;;;5013073;28;20176;-73
2023/07/28 14:36:43;;;;;;;2.97;2.30;;;;;;;;;;5012734;28;20204;-73
2023/07/28 14:39:47;;;;;;;3.60;2.05;;;;;;;;;;5013562;28;20182;-73
2023/07/28 14:42:52;;;;;;;5.53;2.72;;;;;;;;;;5013009;28;20192;-73
2023/07/28 14:45:56;;;;;;;3.80;2.50;;;;;;;;;;5013400;28;20205;-74
2023/07/28 14:49:00;;;;;;;3.10;2.27;;;;;;;;;;5001373;28;20183;-74
2023/07/28 14:52:05;;;;;;;3.33;2.30;;;;;;;;;;5013324;28;20217;-74
2023/07/28 14:55:09;;;;;;;3.27;2.47;;;;;;;;;;5013563;28;20189;-74
2023/07/28 14:58:13;;;;;;;2.97;2.43;;;;;;;;;;5012792;28;20180;-74
2023/07/28 15:01:17;;;;;;;4.33;2.80;;;;;;;;;;5012321;28;20225;-75
2023/07/28 15:04:22;;;;;;;3.70;2.63;;;;;;;;;;5012331;28;20196;-74
2023/07/28 15:07:26;;;;;;;3.43;2.73;;;;;;;;;;5012697;28;20209;-74
2023/07/28 15:10:30;;;;;;;3.00;2.70;;;;;;;;;;5012277;28;20192;-75
2023/07/28 15:13:35;;;;;;;4.53;3.03;;;;;;;;;;5001046;28;20178;-75
2023/07/28 15:16:38;;;;;;;3.53;2.63;;;;;;;;;;5013054;28;20516;-75
2023/07/28 15:19:43;;;;;;;4.70;2.53;;;;;;;;;;5013338;28;20176;-74
2023/07/28 15:22:47;;;;;;;6.70;2.80;;;;;;;;;;5015364;28;20182;-74
2023/07/28 15:25:52;;;;;;;3.60;2.87;;;;;;;;;;5017261;28;20182;-74
2023/07/28 15:28:57;;;;;;;3.43;2.50;;;;;;;;;;5017001;28;20186;-74
2023/07/28 15:32:01;;;;;;;4.20;2.90;;;;;;;;;;5005058;28;20219;-74
2023/07/28 15:35:06;;;;;;;5.37;2.67;;;;;;;;;;5004816;28;20215;-75
2023/07/28 15:38:10;;;;;;;4.97;3.00;;;;;;;;;;5016149;28;20181;-74
2023/07/28 15:41:14;;;;;;;3.03;2.40;;;;;;;;;;5016738;28;20214;-74
2023/07/28 15:44:19;;;;;;;4.27;2.63;;;;;;;;;;5016982;28;20188;-74
2023/07/28 15:47:23;;;;;;;4.97;2.77;;;;;;;;;;5016573;28;20230;-74
2023/07/28 15:50:27;;;;;;;4.27;2.70;;;;;;;;;;5016779;28;20184;-74
2023/07/28 15:53:31;;;;;;;3.00;2.37;;;;;;;;;;5004625;28;20184;-73
2023/07/28 15:56:35;;;;;;;4.67;2.60;;;;;;;;;;5015676;28;20196;-74
2023/07/28 15:59:39;;;;;;;4.33;2.30;;;;;;;;;;5004631;28;20196;-74
2023/07/28 16:02:43;;;;;;;3.53;2.50;;;;;;;;;;5016284;28;20227;-74
2023/07/28 16:05:47;;;;;;;2.43;2.23;;;;;;;;;;5015476;28;20177;-74
2023/07/28 16:08:51;;;;;;;5.13;2.20;;;;;;;;;;5015505;28;20185;-74
2023/07/28 16:11:55;;;;;;;4.70;2.33;;;;;;;;;;5016435;28;20699;-72
2023/07/28 16:15:00;;;;;;;3.73;2.80;;;;;;;;;;5015440;28;20200;-74
2023/07/28 16:18:04;;;;;;;4.13;2.40;;;;;;;;;;5016181;28;20194;-73
2023/07/28 16:21:08;;;;;;;6.53;3.03;;;;;;;;;;5015210;28;20213;-74
2023/07/28 16:24:12;;;;;;;3.17;2.70;;;;;;;;;;5016293;28;20173;-74
2023/07/28 16:27:16;;;;;;;3.53;2.80;;;;;;;;;;5015978;28;20545;-74
2023/07/28 16:30:20;;;;;;;3.90;2.73;;;;;;;;;;5015198;28;20200;-73
2023/07/28 16:33:24;;;;;;;4.07;2.90;;;;;;;;;;5014684;28;20544;-72
2023/07/28 16:36:28;;;;;;;6.83;2.50;;;;;;;;;;5015844;28;20203;-74
2023/07/28 16:39:32;;;;;;;3.10;2.33;;;;;;;;;;5015274;28;20180;-73
2023/07/28 16:42:36;;;;;;;5.13;2.40;;;;;;;;;;5015084;28;20219;-73
2023/07/28 16:45:40;;;;;;;3.23;2.67;;;;;;;;;;5015645;28;20636;-73
2023/07/28 16:48:44;;;;;;;3.07;2.60;;;;;;;;;;5015831;28;20176;-74
2023/07/28 16:51:49;;;;;;;3.30;3.00;;;;;;;;;;5015400;28;20556;-74
2023/07/28 16:54:53;;;;;;;3.87;2.77;;;;;;;;;;5015723;28;20183;-73
2023/07/28 16:57:57;;;;;;;6.17;2.70;;;;;;;;;;5015404;28;20178;-73
2023/07/28 17:01:01;;;;;;;3.73;2.50;;;;;;;;;;5014669;28;20218;-75
2023/07/28 17:04:05;;;;;;;3.00;2.70;;;;;;;;;;5014491;28;20183;-75
2023/07/28 17:07:10;;;;;;;3.30;2.53;;;;;;;;;;5015254;28;20211;-74
2023/07/28 17:10:14;;;;;;;6.67;2.90;;;;;;;;;;5014349;28;20175;-74
2023/07/28 17:13:19;;;;;;;3.60;2.90;;;;;;;;;;5015399;28;20194;-75
2023/07/28 17:16:24;;;;;;;4.23;2.60;;;;;;;;;;5015054;28;20175;-74
2023/07/28 17:19:28;;;;;;;3.43;2.60;;;;;;;;;;5015236;28;20179;-74
2023/07/28 17:22:34;;;;;;;6.20;2.70;;;;;;;;;;5014713;28;20555;-75
2023/07/28 17:25:40;;;;;;;5.23;2.87;;;;;;;;;;5014938;28;20717;-74
2023/07/28 17:28:44;;;;;;;3.27;2.67;;;;;;;;;;5014840;28;20187;-74
2023/07/28 17:31:48;;;;;;;3.23;2.87;;;;;;;;;;5002970;28;20217;-75
2023/07/28 17:34:52;;;;;;;4.00;3.00;;;;;;;;;;5014632;28;20198;-74
2023/07/28 17:37:56;;;;;;;3.53;2.53;;;;;;;;;;5014404;28;20174;-74
2023/07/28 17:41:00;;;;;;;5.47;2.77;;;;;;;;;;5014788;28;20209;-74
2023/07/28 17:44:04;;;;;;;4.10;3.03;;;;;;;;;;5014674;28;20177;-74
2023/07/28 17:47:09;;;;;;;5.17;3.17;;;;;;;;;;5014198;28;20666;-74
2023/07/28 17:50:14;;;;;;;2.70;2.50;;;;;;;;;;5014677;28;20196;-74
2023/07/28 17:53:19;;;;;;;3.40;2.60;;;;;;;;;;5014421;28;20177;-74
2023/07/28 17:56:23;;;;;;;5.27;2.80;;;;;;;;;;5014571;28;20203;-74
2023/07/28 17:59:27;;;;;;;3.33;2.77;;;;;;;;;;5014234;28;20189;-74
2023/07/28 18:02:31;;;;;;;3.67;2.70;;;;;;;;;;5014240;28;20223;-74
2023/07/28 18:05:35;;;;;;;4.53;3.10;;;;;;;;;;5014142;28;20201;-74
2023/07/28 18:08:40;;;;;;;4.53;3.03;;;;;;;;;;5013988;28;20226;-74
2023/07/28 18:11:44;;;;;;;3.73;3.07;;;;;;;;;;5013603;28;20557;-74
2023/07/28 18:14:48;;;;;;;8.57;3.77;;;;;;;;;;5014596;28;20509;-74
2023/07/28 18:17:52;;;;;;;9.43;4.63;;;;;;;;;;5014291;28;20636;-74
2023/07/28 18:20:56;;;;;;;6.03;4.17;;;;;;;;;;5013539;28;20214;-74
2023/07/28 18:24:00;;;;;;;7.60;3.70;;;;;;;;;;5014152;28;20181;-74
2023/07/28 18:27:04;;;;;;;7.77;3.17;;;;;;;;;;5014038;28;20209;-73
2023/07/28 18:30:08;;;;;;;4.93;3.87;;;;;;;;;;5012987;28;20525;-74
2023/07/28 18:33:12;;;;;;;6.10;3.97;;;;;;;;;;5013760;28;20194;-75